sensor_id;sensor_type;location;lat;lon;timestamp;pressure;altitude;pressure_sealevel;temperature;humidity
73245;BME280;61460;41.158;-73.238;2023-05-23T00:01:55;102384.77;;;25.11;46.02
73245;BME280;61460;41.158;-73.238;2023-05-23T00:04:25;102391.36;;;24.98;47.25
73245;BME280;61460;41.158;-73.238;2023-05-23T00:06:56;102398.70;;;22.46;51.85
73245;BME280;61460;41.158;-73.238;2023-05-23T00:09:26;102398.24;;;22.25;55.21
73245;BME280;61460;41.158;-73.238;2023-05-23T00:11:57;102397.76;;;23.53;49.95
73245;BME280;61460;41.158;-73.238;2023-05-23T00:14:27;102395.80;;;23.84;49.02
73245;BME280;61460;41.158;-73.238;2023-05-23T00:16:57;102395.34;;;23.88;50.10
73245;BME280;61460;41.158;-73.238;2023-05-23T00:19:27;102398.96;;;24.01;48.85
73245;BME280;61460;41.158;-73.238;2023-05-23T00:21:58;102404.27;;;24.14;48.44
73245;BME280;61460;41.158;-73.238;2023-05-23T00:24:29;102404.69;;;24.14;48.43
73245;BME280;61460;41.158;-73.238;2023-05-23T00:26:59;102402.65;;;24.21;48.04
73245;BME280;61460;41.158;-73.238;2023-05-23T00:29:30;102410.31;;;24.21;47.85
73245;BME280;61460;41.158;-73.238;2023-05-23T00:32:00;102407.74;;;24.30;47.53
73245;BME280;61460;41.158;-73.238;2023-05-23T00:34:31;102405.20;;;24.36;47.37
73245;BME280;61460;41.158;-73.238;2023-05-23T00:37:02;102406.01;;;24.35;47.39
73245;BME280;61460;41.158;-73.238;2023-05-23T00:39:32;102411.62;;;24.35;47.46
73245;BME280;61460;41.158;-73.238;2023-05-23T00:42:04;102417.79;;;24.36;47.58
73245;BME280;61460;41.158;-73.238;2023-05-23T00:44:33;102419.38;;;24.45;47.30
73245;BME280;61460;41.158;-73.238;2023-05-23T00:47:06;102428.40;;;24.39;47.45
73245;BME280;61460;41.158;-73.238;2023-05-23T00:49:34;102434.66;;;24.55;47.15
73245;BME280;61460;41.158;-73.238;2023-05-23T00:52:05;102437.59;;;24.62;47.04
73245;BME280;61460;41.158;-73.238;2023-05-23T00:54:35;102444.29;;;24.68;46.83
73245;BME280;61460;41.158;-73.238;2023-05-23T00:57:06;102448.51;;;24.66;46.79
73245;BME280;61460;41.158;-73.238;2023-05-23T00:59:37;102447.70;;;24.77;46.60
73245;BME280;61460;41.158;-73.238;2023-05-23T01:02:06;102450.98;;;24.65;46.93
73245;BME280;61460;41.158;-73.238;2023-05-23T01:04:37;102448.57;;;24.76;46.74
73245;BME280;61460;41.158;-73.238;2023-05-23T01:07:07;102455.30;;;24.74;46.83
73245;BME280;61460;41.158;-73.238;2023-05-23T01:09:38;102455.06;;;24.69;46.85
73245;BME280;61460;41.158;-73.238;2023-05-23T01:12:18;102454.83;;;24.69;46.93
73245;BME280;61460;41.158;-73.238;2023-05-23T01:14:48;102458.93;;;24.70;46.83
73245;BME280;61460;41.158;-73.238;2023-05-23T01:17:14;102459.29;;;24.68;46.77
73245;BME280;61460;41.158;-73.238;2023-05-23T01:19:53;102461.62;;;24.58;46.89
73245;BME280;61460;41.158;-73.238;2023-05-23T01:22:15;102468.86;;;24.44;46.85
73245;BME280;61460;41.158;-73.238;2023-05-23T01:24:46;102476.39;;;24.49;46.64
73245;BME280;61460;41.158;-73.238;2023-05-23T01:27:18;102485.21;;;24.60;46.42
73245;BME280;61460;41.158;-73.238;2023-05-23T01:29:44;102491.20;;;24.60;46.45
73245;BME280;61460;41.158;-73.238;2023-05-23T01:32:15;102484.54;;;23.43;48.48
73245;BME280;61460;41.158;-73.238;2023-05-23T01:34:44;102497.08;;;21.54;52.87
73245;BME280;61460;41.158;-73.238;2023-05-23T01:37:15;102504.34;;;22.19;53.02
73245;BME280;61460;41.158;-73.238;2023-05-23T01:39:44;102503.84;;;23.08;49.89
73245;BME280;61460;41.158;-73.238;2023-05-23T01:42:15;102503.02;;;23.43;49.00
73245;BME280;61460;41.158;-73.238;2023-05-23T01:44:45;102503.94;;;23.70;48.17
73245;BME280;61460;41.158;-73.238;2023-05-23T01:47:15;102507.76;;;23.79;48.07
73245;BME280;61460;41.158;-73.238;2023-05-23T01:49:46;102513.32;;;23.82;47.97
73245;BME280;61460;41.158;-73.238;2023-05-23T01:52:16;102516.89;;;23.89;47.77
73245;BME280;61460;41.158;-73.238;2023-05-23T01:54:46;102517.51;;;23.98;47.48
73245;BME280;61460;41.158;-73.238;2023-05-23T01:57:17;102519.58;;;23.97;47.49
73245;BME280;61460;41.158;-73.238;2023-05-23T01:59:46;102514.67;;;24.02;47.36
73245;BME280;61460;41.158;-73.238;2023-05-23T02:02:17;102517.28;;;24.14;47.06
73245;BME280;61460;41.158;-73.238;2023-05-23T02:04:48;102521.01;;;24.20;46.91
73245;BME280;61460;41.158;-73.238;2023-05-23T02:07:17;102516.85;;;24.24;46.83
73245;BME280;61460;41.158;-73.238;2023-05-23T02:09:48;102515.44;;;24.24;46.81
73245;BME280;61460;41.158;-73.238;2023-05-23T02:12:18;102516.58;;;24.27;46.77
73245;BME280;61460;41.158;-73.238;2023-05-23T02:14:49;102516.83;;;24.35;46.57
73245;BME280;61460;41.158;-73.238;2023-05-23T02:17:19;102512.13;;;24.40;46.50
73245;BME280;61460;41.158;-73.238;2023-05-23T02:19:50;102511.19;;;24.40;46.61
73245;BME280;61460;41.158;-73.238;2023-05-23T02:22:23;102513.62;;;24.38;46.72
73245;BME280;61460;41.158;-73.238;2023-05-23T02:24:51;102518.04;;;24.45;46.77
73245;BME280;61460;41.158;-73.238;2023-05-23T02:27:21;102520.98;;;24.47;46.71
73245;BME280;61460;41.158;-73.238;2023-05-23T02:29:51;102527.13;;;24.55;46.61
73245;BME280;61460;41.158;-73.238;2023-05-23T02:32:21;102524.22;;;24.64;46.39
73245;BME280;61460;41.158;-73.238;2023-05-23T02:34:52;102520.22;;;24.59;46.76
73245;BME280;61460;41.158;-73.238;2023-05-23T02:37:22;102521.16;;;24.59;47.04
73245;BME280;61460;41.158;-73.238;2023-05-23T02:39:53;102521.61;;;24.54;47.31
73245;BME280;61460;41.158;-73.238;2023-05-23T02:42:23;102530.27;;;24.69;47.23
73245;BME280;61460;41.158;-73.238;2023-05-23T02:44:54;102530.93;;;24.57;47.42
73245;BME280;61460;41.158;-73.238;2023-05-23T02:47:24;102534.08;;;24.57;47.93
73245;BME280;61460;41.158;-73.238;2023-05-23T02:49:55;102538.11;;;24.57;47.49
73245;BME280;61460;41.158;-73.238;2023-05-23T02:52:25;102537.18;;;24.50;47.51
73245;BME280;61460;41.158;-73.238;2023-05-23T02:54:56;102539.49;;;24.40;48.05
73245;BME280;61460;41.158;-73.238;2023-05-23T02:57:26;102543.32;;;24.51;47.37
73245;BME280;61460;41.158;-73.238;2023-05-23T02:59:57;102542.61;;;24.34;47.88
73245;BME280;61460;41.158;-73.238;2023-05-23T03:02:28;102540.61;;;24.38;47.57
73245;BME280;61460;41.158;-73.238;2023-05-23T03:04:58;102548.03;;;24.51;47.18
73245;BME280;61460;41.158;-73.238;2023-05-23T03:07:28;102552.37;;;24.57;47.19
73245;BME280;61460;41.158;-73.238;2023-05-23T03:09:59;102562.84;;;24.56;47.11
73245;BME280;61460;41.158;-73.238;2023-05-23T03:12:29;102564.26;;;24.61;47.00
73245;BME280;61460;41.158;-73.238;2023-05-23T03:15:00;102563.28;;;24.63;47.04
73245;BME280;61460;41.158;-73.238;2023-05-23T03:17:30;102565.44;;;24.54;47.20
73245;BME280;61460;41.158;-73.238;2023-05-23T03:20:01;102562.28;;;24.64;47.06
73245;BME280;61460;41.158;-73.238;2023-05-23T03:22:32;102561.20;;;24.56;47.27
73245;BME280;61460;41.158;-73.238;2023-05-23T03:25:02;102561.68;;;24.55;47.22
73245;BME280;61460;41.158;-73.238;2023-05-23T03:27:33;102558.67;;;24.53;47.24
73245;BME280;61460;41.158;-73.238;2023-05-23T03:30:04;102562.28;;;24.53;47.14
73245;BME280;61460;41.158;-73.238;2023-05-23T03:32:33;102567.19;;;24.54;47.27
73245;BME280;61460;41.158;-73.238;2023-05-23T03:35:03;102569.82;;;24.62;47.11
73245;BME280;61460;41.158;-73.238;2023-05-23T03:37:34;102572.78;;;24.55;47.28
73245;BME280;61460;41.158;-73.238;2023-05-23T03:40:06;102560.33;;;24.55;47.31
73245;BME280;61460;41.158;-73.238;2023-05-23T03:42:35;102565.01;;;24.47;47.55
73245;BME280;61460;41.158;-73.238;2023-05-23T03:45:06;102568.71;;;24.34;47.81
73245;BME280;61460;41.158;-73.238;2023-05-23T03:47:35;102572.78;;;22.74;51.00
73245;BME280;61460;41.158;-73.238;2023-05-23T03:50:08;102579.49;;;20.82;55.45
73245;BME280;61460;41.158;-73.238;2023-05-23T03:52:37;102585.01;;;21.99;54.55
73245;BME280;61460;41.158;-73.238;2023-05-23T03:55:08;102577.15;;;22.78;51.75
73245;BME280;61460;41.158;-73.238;2023-05-23T03:57:38;102572.42;;;23.17;50.80
73245;BME280;61460;41.158;-73.238;2023-05-23T04:00:09;102583.27;;;23.37;50.35
73245;BME280;61460;41.158;-73.238;2023-05-23T04:02:39;102586.70;;;23.55;49.92
73245;BME280;61460;41.158;-73.238;2023-05-23T04:05:09;102585.52;;;23.70;49.79
73245;BME280;61460;41.158;-73.238;2023-05-23T04:07:40;102593.37;;;23.70;49.74
73245;BME280;61460;41.158;-73.238;2023-05-23T04:10:10;102598.25;;;23.80;49.72
73245;BME280;61460;41.158;-73.238;2023-05-23T04:12:40;102594.80;;;23.91;49.39
73245;BME280;61460;41.158;-73.238;2023-05-23T04:15:11;102592.15;;;23.83;49.57
73245;BME280;61460;41.158;-73.238;2023-05-23T04:17:41;102590.45;;;23.72;50.05
73245;BME280;61460;41.158;-73.238;2023-05-23T04:20:11;102581.12;;;23.73;49.80
73245;BME280;61460;41.158;-73.238;2023-05-23T04:22:42;102583.85;;;23.83;49.69
73245;BME280;61460;41.158;-73.238;2023-05-23T04:25:12;102584.63;;;23.79;49.69
73245;BME280;61460;41.158;-73.238;2023-05-23T04:27:43;102583.70;;;23.79;49.88
73245;BME280;61460;41.158;-73.238;2023-05-23T04:30:14;102589.07;;;23.74;50.23
73245;BME280;61460;41.158;-73.238;2023-05-23T04:32:44;102594.53;;;23.79;49.94
73245;BME280;61460;41.158;-73.238;2023-05-23T04:35:14;102594.41;;;23.75;50.06
73245;BME280;61460;41.158;-73.238;2023-05-23T04:37:46;102585.31;;;23.78;49.96
73245;BME280;61460;41.158;-73.238;2023-05-23T04:40:15;102582.71;;;23.81;50.02
73245;BME280;61460;41.158;-73.238;2023-05-23T04:42:45;102579.52;;;23.88;49.78
73245;BME280;61460;41.158;-73.238;2023-05-23T04:45:16;102589.94;;;23.84;49.86
73245;BME280;61460;41.158;-73.238;2023-05-23T04:47:46;102587.41;;;23.99;49.43
73245;BME280;61460;41.158;-73.238;2023-05-23T04:50:16;102592.62;;;23.83;50.05
73245;BME280;61460;41.158;-73.238;2023-05-23T04:52:47;102583.21;;;23.95;49.57
73245;BME280;61460;41.158;-73.238;2023-05-23T04:55:18;102577.60;;;23.99;49.80
73245;BME280;61460;41.158;-73.238;2023-05-23T04:57:47;102578.99;;;24.01;49.84
73245;BME280;61460;41.158;-73.238;2023-05-23T05:00:18;102580.27;;;24.08;49.68
73245;BME280;61460;41.158;-73.238;2023-05-23T05:02:48;102578.57;;;24.05;49.73
73245;BME280;61460;41.158;-73.238;2023-05-23T05:05:19;102573.68;;;24.07;50.07
73245;BME280;61460;41.158;-73.238;2023-05-23T05:07:49;102572.06;;;24.10;50.22
73245;BME280;61460;41.158;-73.238;2023-05-23T05:10:20;102571.86;;;24.08;50.35
73245;BME280;61460;41.158;-73.238;2023-05-23T05:12:50;102571.00;;;24.27;49.97
73245;BME280;61460;41.158;-73.238;2023-05-23T05:15:20;102571.35;;;24.30;49.91
73245;BME280;61460;41.158;-73.238;2023-05-23T05:17:50;102572.84;;;24.29;49.96
73245;BME280;61460;41.158;-73.238;2023-05-23T05:20:21;102575.69;;;24.26;50.06
73245;BME280;61460;41.158;-73.238;2023-05-23T05:22:56;102571.15;;;24.31;49.91
73245;BME280;61460;41.158;-73.238;2023-05-23T05:25:22;102574.81;;;24.40;49.72
73245;BME280;61460;41.158;-73.238;2023-05-23T05:27:53;102575.53;;;24.45;49.47
73245;BME280;61460;41.158;-73.238;2023-05-23T05:30:23;102575.73;;;24.38;49.79
73245;BME280;61460;41.158;-73.238;2023-05-23T05:32:54;102569.76;;;24.40;49.73
73245;BME280;61460;41.158;-73.238;2023-05-23T05:35:24;102563.47;;;24.36;50.07
73245;BME280;61460;41.158;-73.238;2023-05-23T05:37:54;102561.80;;;24.47;49.84
73245;BME280;61460;41.158;-73.238;2023-05-23T05:40:25;102561.62;;;24.42;49.99
73245;BME280;61460;41.158;-73.238;2023-05-23T05:42:56;102563.60;;;24.55;49.72
73245;BME280;61460;41.158;-73.238;2023-05-23T05:45:26;102570.49;;;24.55;49.79
73245;BME280;61460;41.158;-73.238;2023-05-23T05:47:57;102571.56;;;24.52;49.95
73245;BME280;61460;41.158;-73.238;2023-05-23T05:50:27;102570.00;;;24.51;49.93
73245;BME280;61460;41.158;-73.238;2023-05-23T05:52:57;102572.82;;;24.54;49.78
73245;BME280;61460;41.158;-73.238;2023-05-23T05:55:28;102578.34;;;24.58;49.67
73245;BME280;61460;41.158;-73.238;2023-05-23T05:57:58;102574.96;;;24.59;49.78
73245;BME280;61460;41.158;-73.238;2023-05-23T06:00:29;102585.87;;;24.55;49.72
73245;BME280;61460;41.158;-73.238;2023-05-23T06:02:59;102589.21;;;24.59;49.72
73245;BME280;61460;41.158;-73.238;2023-05-23T06:05:29;102590.07;;;24.59;49.70
73245;BME280;61460;41.158;-73.238;2023-05-23T06:08:00;102588.92;;;24.54;49.81
73245;BME280;61460;41.158;-73.238;2023-05-23T06:10:30;102589.83;;;24.44;50.01
73245;BME280;61460;41.158;-73.238;2023-05-23T06:13:01;102586.93;;;24.53;49.79
73245;BME280;61460;41.158;-73.238;2023-05-23T06:15:31;102589.69;;;24.54;49.64
73245;BME280;61460;41.158;-73.238;2023-05-23T06:18:02;102593.90;;;24.50;49.76
73245;BME280;61460;41.158;-73.238;2023-05-23T06:20:33;102592.30;;;24.40;50.02
73245;BME280;61460;41.158;-73.238;2023-05-23T06:23:03;102593.54;;;24.44;50.08
73245;BME280;61460;41.158;-73.238;2023-05-23T06:25:34;102587.07;;;24.47;49.75
73245;BME280;61460;41.158;-73.238;2023-05-23T06:28:05;102583.36;;;24.39;49.78
73245;BME280;61460;41.158;-73.238;2023-05-23T06:30:35;102588.78;;;24.37;49.85
73245;BME280;61460;41.158;-73.238;2023-05-23T06:33:05;102586.83;;;24.30;51.97
73245;BME280;61460;41.158;-73.238;2023-05-23T06:35:35;102586.65;;;24.23;50.52
73245;BME280;61460;41.158;-73.238;2023-05-23T06:38:06;102583.43;;;24.22;50.53
73245;BME280;61460;41.158;-73.238;2023-05-23T06:40:36;102584.25;;;24.20;50.41
73245;BME280;61460;41.158;-73.238;2023-05-23T06:43:07;102581.99;;;24.11;50.82
73245;BME280;61460;41.158;-73.238;2023-05-23T06:45:38;102581.15;;;24.15;51.59
73245;BME280;61460;41.158;-73.238;2023-05-23T06:48:08;102579.36;;;24.23;50.58
73245;BME280;61460;41.158;-73.238;2023-05-23T06:50:39;102579.09;;;24.10;51.20
73245;BME280;61460;41.158;-73.238;2023-05-23T06:53:09;102577.75;;;24.16;51.05
73245;BME280;61460;41.158;-73.238;2023-05-23T06:55:39;102582.21;;;24.18;50.86
73245;BME280;61460;41.158;-73.238;2023-05-23T06:58:10;102585.45;;;24.23;50.90
73245;BME280;61460;41.158;-73.238;2023-05-23T07:00:40;102586.70;;;24.15;51.22
73245;BME280;61460;41.158;-73.238;2023-05-23T07:03:10;102593.54;;;24.22;51.10
73245;BME280;61460;41.158;-73.238;2023-05-23T07:05:40;102587.10;;;24.29;50.80
73245;BME280;61460;41.158;-73.238;2023-05-23T07:08:10;102588.86;;;24.32;50.95
73245;BME280;61460;41.158;-73.238;2023-05-23T07:10:41;102590.87;;;24.33;50.89
73245;BME280;61460;41.158;-73.238;2023-05-23T07:13:11;102593.81;;;24.30;50.98
73245;BME280;61460;41.158;-73.238;2023-05-23T07:15:42;102595.82;;;24.27;52.21
73245;BME280;61460;41.158;-73.238;2023-05-23T07:18:12;102597.17;;;24.31;51.45
73245;BME280;61460;41.158;-73.238;2023-05-23T07:20:43;102598.61;;;24.28;51.16
73245;BME280;61460;41.158;-73.238;2023-05-23T07:23:14;102603.10;;;24.46;50.67
73245;BME280;61460;41.158;-73.238;2023-05-23T07:25:44;102603.44;;;24.37;51.05
73245;BME280;61460;41.158;-73.238;2023-05-23T07:28:15;102600.86;;;24.29;51.46
73245;BME280;61460;41.158;-73.238;2023-05-23T07:30:45;102596.91;;;24.49;51.16
73245;BME280;61460;41.158;-73.238;2023-05-23T07:33:16;102599.40;;;24.47;51.13
73245;BME280;61460;41.158;-73.238;2023-05-23T07:35:46;102601.61;;;24.56;51.08
73245;BME280;61460;41.158;-73.238;2023-05-23T07:38:17;102603.50;;;24.38;51.49
73245;BME280;61460;41.158;-73.238;2023-05-23T07:40:47;102605.01;;;24.45;50.89
73245;BME280;61460;41.158;-73.238;2023-05-23T07:43:18;102605.54;;;24.43;51.13
73245;BME280;61460;41.158;-73.238;2023-05-23T07:45:49;102615.14;;;24.38;51.24
73245;BME280;61460;41.158;-73.238;2023-05-23T07:48:19;102613.52;;;24.33;51.36
73245;BME280;61460;41.158;-73.238;2023-05-23T07:50:50;102611.68;;;24.37;50.94
73245;BME280;61460;41.158;-73.238;2023-05-23T07:53:20;102614.77;;;24.33;50.90
73245;BME280;61460;41.158;-73.238;2023-05-23T07:55:51;102618.28;;;24.17;51.14
73245;BME280;61460;41.158;-73.238;2023-05-23T07:58:21;102624.75;;;24.36;50.82
73245;BME280;61460;41.158;-73.238;2023-05-23T08:00:51;102624.69;;;24.32;50.80
73245;BME280;61460;41.158;-73.238;2023-05-23T08:03:21;102630.24;;;24.44;50.50
73245;BME280;61460;41.158;-73.238;2023-05-23T08:05:52;102631.54;;;24.40;50.45
73245;BME280;61460;41.158;-73.238;2023-05-23T08:08:22;102633.69;;;24.34;50.58
73245;BME280;61460;41.158;-73.238;2023-05-23T08:10:52;102637.20;;;24.35;50.44
73245;BME280;61460;41.158;-73.238;2023-05-23T08:13:22;102643.67;;;24.47;49.87
73245;BME280;61460;41.158;-73.238;2023-05-23T08:15:53;102641.78;;;24.41;49.94
73245;BME280;61460;41.158;-73.238;2023-05-23T08:18:23;102637.51;;;24.30;50.15
73245;BME280;61460;41.158;-73.238;2023-05-23T08:20:54;102635.50;;;24.34;50.21
73245;BME280;61460;41.158;-73.238;2023-05-23T08:23:25;102639.36;;;24.33;49.92
73245;BME280;61460;41.158;-73.238;2023-05-23T08:25:56;102638.39;;;24.39;49.64
73245;BME280;61460;41.158;-73.238;2023-05-23T08:28:26;102643.09;;;24.34;49.80
73245;BME280;61460;41.158;-73.238;2023-05-23T08:30:56;102645.59;;;24.29;49.91
73245;BME280;61460;41.158;-73.238;2023-05-23T08:33:27;102642.35;;;24.37;49.66
73245;BME280;61460;41.158;-73.238;2023-05-23T08:35:57;102641.47;;;24.30;49.64
73245;BME280;61460;41.158;-73.238;2023-05-23T08:38:27;102643.71;;;24.29;49.86
73245;BME280;61460;41.158;-73.238;2023-05-23T08:41:00;102639.10;;;24.18;50.11
73245;BME280;61460;41.158;-73.238;2023-05-23T08:43:28;102646.90;;;24.32;49.72
73245;BME280;61460;41.158;-73.238;2023-05-23T08:45:58;102650.28;;;24.35;49.71
73245;BME280;61460;41.158;-73.238;2023-05-23T08:48:29;102648.16;;;24.28;50.07
73245;BME280;61460;41.158;-73.238;2023-05-23T08:50:58;102647.09;;;24.30;50.03
73245;BME280;61460;41.158;-73.238;2023-05-23T08:53:30;102651.94;;;24.27;50.16
73245;BME280;61460;41.158;-73.238;2023-05-23T08:55:59;102653.15;;;24.37;49.86
73245;BME280;61460;41.158;-73.238;2023-05-23T08:58:29;102657.31;;;24.27;50.24
73245;BME280;61460;41.158;-73.238;2023-05-23T09:00:59;102661.60;;;24.31;50.18
73245;BME280;61460;41.158;-73.238;2023-05-23T09:03:29;102663.27;;;24.24;50.44
73245;BME280;61460;41.158;-73.238;2023-05-23T09:06:00;102664.75;;;24.18;50.66
73245;BME280;61460;41.158;-73.238;2023-05-23T09:08:30;102669.53;;;24.16;51.06
73245;BME280;61460;41.158;-73.238;2023-05-23T09:11:02;102667.80;;;24.09;51.32
73245;BME280;61460;41.158;-73.238;2023-05-23T09:13:32;102668.21;;;24.16;51.39
73245;BME280;61460;41.158;-73.238;2023-05-23T09:16:03;102671.84;;;24.18;51.38
73245;BME280;61460;41.158;-73.238;2023-05-23T09:18:33;102677.38;;;24.26;51.07
73245;BME280;61460;41.158;-73.238;2023-05-23T09:21:04;102677.75;;;24.18;51.74
73245;BME280;61460;41.158;-73.238;2023-05-23T09:23:34;102682.58;;;24.25;51.54
73245;BME280;61460;41.158;-73.238;2023-05-23T09:26:05;102682.64;;;24.19;51.59
73245;BME280;61460;41.158;-73.238;2023-05-23T09:28:36;102685.27;;;24.11;51.68
73245;BME280;61460;41.158;-73.238;2023-05-23T09:31:07;102681.67;;;24.05;52.07
73245;BME280;61460;41.158;-73.238;2023-05-23T09:33:38;102679.95;;;24.08;51.69
73245;BME280;61460;41.158;-73.238;2023-05-23T09:36:07;102682.82;;;24.18;51.17
73245;BME280;61460;41.158;-73.238;2023-05-23T09:38:38;102682.17;;;24.23;51.21
73245;BME280;61460;41.158;-73.238;2023-05-23T09:41:07;102684.26;;;24.21;51.21
73245;BME280;61460;41.158;-73.238;2023-05-23T09:43:38;102682.37;;;24.15;51.19
73245;BME280;61460;41.158;-73.238;2023-05-23T09:46:10;102688.28;;;24.19;51.10
73245;BME280;61460;41.158;-73.238;2023-05-23T09:48:39;102693.86;;;24.20;50.98
73245;BME280;61460;41.158;-73.238;2023-05-23T09:51:09;102696.99;;;24.02;51.67
73245;BME280;61460;41.158;-73.238;2023-05-23T09:53:40;102696.95;;;24.21;50.91
73245;BME280;61460;41.158;-73.238;2023-05-23T09:56:11;102706.87;;;24.20;51.10
73245;BME280;61460;41.158;-73.238;2023-05-23T09:58:45;102706.94;;;24.22;50.97
73245;BME280;61460;41.158;-73.238;2023-05-23T10:01:12;102706.37;;;24.16;51.02
73245;BME280;61460;41.158;-73.238;2023-05-23T10:03:47;102710.06;;;24.14;51.11
73245;BME280;61460;41.158;-73.238;2023-05-23T10:06:17;102718.08;;;24.16;50.79
73245;BME280;61460;41.158;-73.238;2023-05-23T10:08:47;102721.12;;;24.19;50.76
73245;BME280;61460;41.158;-73.238;2023-05-23T10:13:47;102720.46;;;24.08;51.27
73245;BME280;61460;41.158;-73.238;2023-05-23T10:16:21;102728.76;;;24.24;50.65
73245;BME280;61460;41.158;-73.238;2023-05-23T10:18:53;102730.67;;;24.22;50.89
73245;BME280;61460;41.158;-73.238;2023-05-23T10:21:19;102720.11;;;24.25;50.66
73245;BME280;61460;41.158;-73.238;2023-05-23T10:23:47;102718.22;;;24.22;50.59
73245;BME280;61460;41.158;-73.238;2023-05-23T10:26:17;102719.58;;;24.33;50.10
73245;BME280;61460;41.158;-73.238;2023-05-23T10:28:49;102733.99;;;24.28;50.25
73245;BME280;61460;41.158;-73.238;2023-05-23T10:31:19;102745.07;;;24.24;50.58
73245;BME280;61460;41.158;-73.238;2023-05-23T10:33:52;102747.27;;;24.26;50.73
73245;BME280;61460;41.158;-73.238;2023-05-23T10:36:24;102738.57;;;24.30;50.47
73245;BME280;61460;41.158;-73.238;2023-05-23T10:38:54;102737.80;;;24.34;50.38
73245;BME280;61460;41.158;-73.238;2023-05-23T10:41:24;102737.36;;;24.35;50.12
73245;BME280;61460;41.158;-73.238;2023-05-23T10:43:56;102735.61;;;24.40;49.92
73245;BME280;61460;41.158;-73.238;2023-05-23T10:46:21;102741.80;;;24.34;50.22
73245;BME280;61460;41.158;-73.238;2023-05-23T10:48:55;102746.73;;;24.22;50.46
73245;BME280;61460;41.158;-73.238;2023-05-23T10:51:22;102744.23;;;24.28;50.24
73245;BME280;61460;41.158;-73.238;2023-05-23T10:53:53;102750.78;;;24.21;50.23
73245;BME280;61460;41.158;-73.238;2023-05-23T10:56:23;102751.75;;;24.14;50.30
73245;BME280;61460;41.158;-73.238;2023-05-23T10:58:54;102749.75;;;24.24;49.95
73245;BME280;61460;41.158;-73.238;2023-05-23T11:01:24;102754.47;;;24.11;50.29
73245;BME280;61460;41.158;-73.238;2023-05-23T11:03:54;102757.30;;;24.14;49.98
73245;BME280;61460;41.158;-73.238;2023-05-23T11:06:30;102757.14;;;24.15;50.09
73245;BME280;61460;41.158;-73.238;2023-05-23T11:09:01;102754.92;;;24.06;50.32
73245;BME280;61460;41.158;-73.238;2023-05-23T11:13:57;102751.26;;;24.01;49.80
73245;BME280;61460;41.158;-73.238;2023-05-23T11:16:29;102752.68;;;23.96;49.83
73245;BME280;61460;41.158;-73.238;2023-05-23T11:21:28;102757.49;;;23.86;49.65
73245;BME280;61460;41.158;-73.238;2023-05-23T11:23:58;102758.94;;;23.90;49.50
73245;BME280;61460;41.158;-73.238;2023-05-23T11:26:30;102754.20;;;23.98;49.34
73245;BME280;61460;41.158;-73.238;2023-05-23T11:28:59;102751.16;;;24.00;49.47
73245;BME280;61460;41.158;-73.238;2023-05-23T11:31:36;102755.94;;;24.13;48.73
73245;BME280;61460;41.158;-73.238;2023-05-23T11:34:00;102748.11;;;24.26;48.52
73245;BME280;61460;41.158;-73.238;2023-05-23T11:36:31;102752.37;;;24.31;48.42
73245;BME280;61460;41.158;-73.238;2023-05-23T11:39:03;102754.97;;;24.47;48.55
73245;BME280;61460;41.158;-73.238;2023-05-23T11:41:33;102756.09;;;24.60;47.88
73245;BME280;61460;41.158;-73.238;2023-05-23T11:44:10;102754.56;;;24.41;48.21
73245;BME280;61460;41.158;-73.238;2023-05-23T11:46:32;102760.56;;;24.53;47.45
73245;BME280;61460;41.158;-73.238;2023-05-23T11:49:11;102756.35;;;24.60;47.11
73245;BME280;61460;41.158;-73.238;2023-05-23T11:51:33;102753.12;;;24.51;47.38
73245;BME280;61460;41.158;-73.238;2023-05-23T11:54:04;102754.77;;;24.51;47.13
73245;BME280;61460;41.158;-73.238;2023-05-23T11:56:39;102755.84;;;24.40;47.38
73245;BME280;61460;41.158;-73.238;2023-05-23T11:59:05;102753.19;;;24.47;46.89
73245;BME280;61460;41.158;-73.238;2023-05-23T12:01:36;102750.03;;;24.44;46.93
73245;BME280;61460;41.158;-73.238;2023-05-23T12:04:09;102753.69;;;24.47;46.52
73245;BME280;61460;41.158;-73.238;2023-05-23T12:06:38;102753.62;;;24.51;45.92
73245;BME280;61460;41.158;-73.238;2023-05-23T12:09:10;102756.34;;;24.37;46.23
73245;BME280;61460;41.158;-73.238;2023-05-23T12:11:38;102757.70;;;24.51;46.24
73245;BME280;61460;41.158;-73.238;2023-05-23T12:14:08;102752.91;;;24.48;45.90
73245;BME280;61460;41.158;-73.238;2023-05-23T12:16:38;102760.81;;;24.53;45.79
73245;BME280;61460;41.158;-73.238;2023-05-23T12:19:09;102765.62;;;24.50;45.82
73245;BME280;61460;41.158;-73.238;2023-05-23T12:21:42;102768.36;;;24.54;46.29
73245;BME280;61460;41.158;-73.238;2023-05-23T12:24:13;102767.36;;;24.54;45.81
73245;BME280;61460;41.158;-73.238;2023-05-23T12:26:47;102770.71;;;24.67;45.27
73245;BME280;61460;41.158;-73.238;2023-05-23T12:29:11;102777.62;;;24.65;45.96
73245;BME280;61460;41.158;-73.238;2023-05-23T12:31:42;102778.71;;;24.60;44.91
73245;BME280;61460;41.158;-73.238;2023-05-23T12:34:12;102778.49;;;24.60;45.26
73245;BME280;61460;41.158;-73.238;2023-05-23T12:36:43;102779.43;;;22.02;51.18
73245;BME280;61460;41.158;-73.238;2023-05-23T12:39:14;102778.03;;;20.82;54.91
73245;BME280;61460;41.158;-73.238;2023-05-23T12:41:44;102778.18;;;22.24;51.09
73245;BME280;61460;41.158;-73.238;2023-05-23T12:44:15;102774.37;;;22.76;49.67
73245;BME280;61460;41.158;-73.238;2023-05-23T12:46:45;102773.31;;;23.12;48.63
73245;BME280;61460;41.158;-73.238;2023-05-23T12:49:15;102773.21;;;23.30;48.11
73245;BME280;61460;41.158;-73.238;2023-05-23T12:51:46;102775.45;;;23.38;47.77
73245;BME280;61460;41.158;-73.238;2023-05-23T12:54:17;102771.55;;;23.60;47.23